Terminal Aerodrome Forecast
Issued by NWS Lubbock, TX

Home | Current Version | Previous Version | Text Only | Print | Product List | Glossary On
Versions: 1 2 3 4 5 6 7 8 9 10 11 12 13 14 15 16 17 18 19 20 21 22 23 24 25
000
FTUS44 KLUB 220532
TAFLBB
TAF
KLBB 220532Z 2206/2306 01010KT P6SM FEW060 SCT100
      TEMPO 2209/2213 5SM BR SCT005=

USA.gov is the U.S. government's official web portal to all federal, state and local government web resources and services.